sensor_id;sensor_type;location;lat;lon;timestamp;P1;durP1;ratioP1;P2;durP2;ratioP2
48665;SDS011;34452;50.796;4.994;2023-03-20T00:00:25;17.90;;;7.18;;
48665;SDS011;34452;50.796;4.994;2023-03-20T00:02:55;11.85;;;6.90;;
48665;SDS011;34452;50.796;4.994;2023-03-20T00:05:22;8.32;;;6.85;;
48665;SDS011;34452;50.796;4.994;2023-03-20T00:07:49;12.32;;;5.68;;
48665;SDS011;34452;50.796;4.994;2023-03-20T00:10:16;13.13;;;7.30;;
48665;SDS011;34452;50.796;4.994;2023-03-20T00:12:43;18.38;;;7.00;;
48665;SDS011;34452;50.796;4.994;2023-03-20T00:15:16;13.23;;;6.82;;
48665;SDS011;34452;50.796;4.994;2023-03-20T00:17:55;9.93;;;5.53;;
48665;SDS011;34452;50.796;4.994;2023-03-20T00:22:48;13.40;;;6.22;;
48665;SDS011;34452;50.796;4.994;2023-03-20T00:25:15;12.27;;;6.45;;
48665;SDS011;34452;50.796;4.994;2023-03-20T00:27:43;10.88;;;6.18;;
48665;SDS011;34452;50.796;4.994;2023-03-20T00:32:56;11.25;;;6.13;;
48665;SDS011;34452;50.796;4.994;2023-03-20T00:35:24;12.70;;;6.13;;
48665;SDS011;34452;50.796;4.994;2023-03-20T00:37:52;9.80;;;5.80;;
48665;SDS011;34452;50.796;4.994;2023-03-20T00:40:19;11.68;;;7.53;;
48665;SDS011;34452;50.796;4.994;2023-03-20T00:42:46;12.93;;;6.18;;
48665;SDS011;34452;50.796;4.994;2023-03-20T00:45:16;11.25;;;6.68;;
48665;SDS011;34452;50.796;4.994;2023-03-20T00:47:45;11.85;;;6.38;;
48665;SDS011;34452;50.796;4.994;2023-03-20T00:50:16;13.80;;;6.75;;
48665;SDS011;34452;50.796;4.994;2023-03-20T00:52:45;12.45;;;6.38;;
48665;SDS011;34452;50.796;4.994;2023-03-20T00:55:10;12.13;;;6.80;;
48665;SDS011;34452;50.796;4.994;2023-03-20T00:57:39;9.95;;;6.50;;
48665;SDS011;34452;50.796;4.994;2023-03-20T01:03:00;11.88;;;6.72;;
48665;SDS011;34452;50.796;4.994;2023-03-20T01:05:29;14.88;;;6.93;;
48665;SDS011;34452;50.796;4.994;2023-03-20T01:07:55;10.23;;;6.43;;
48665;SDS011;34452;50.796;4.994;2023-03-20T01:10:21;10.93;;;6.93;;
48665;SDS011;34452;50.796;4.994;2023-03-20T01:12:51;15.75;;;7.20;;
48665;SDS011;34452;50.796;4.994;2023-03-20T01:15:19;11.32;;;6.57;;
48665;SDS011;34452;50.796;4.994;2023-03-20T01:17:47;13.05;;;7.03;;
48665;SDS011;34452;50.796;4.994;2023-03-20T01:20:16;10.32;;;6.68;;
48665;SDS011;34452;50.796;4.994;2023-03-20T01:22:45;16.55;;;7.80;;
48665;SDS011;34452;50.796;4.994;2023-03-20T01:25:11;12.20;;;6.28;;
48665;SDS011;34452;50.796;4.994;2023-03-20T01:27:37;10.48;;;5.95;;
48665;SDS011;34452;50.796;4.994;2023-03-20T01:30:05;13.95;;;7.15;;
48665;SDS011;34452;50.796;4.994;2023-03-20T01:32:48;12.88;;;6.70;;
48665;SDS011;34452;50.796;4.994;2023-03-20T01:35:15;15.85;;;6.78;;
48665;SDS011;34452;50.796;4.994;2023-03-20T01:37:44;17.17;;;7.55;;
48665;SDS011;34452;50.796;4.994;2023-03-20T01:40:25;14.05;;;6.78;;
48665;SDS011;34452;50.796;4.994;2023-03-20T01:43:11;15.32;;;7.38;;
48665;SDS011;34452;50.796;4.994;2023-03-20T01:45:42;14.32;;;7.95;;
48665;SDS011;34452;50.796;4.994;2023-03-20T01:48:25;12.07;;;7.35;;
48665;SDS011;34452;50.796;4.994;2023-03-20T01:50:56;11.65;;;6.72;;
48665;SDS011;34452;50.796;4.994;2023-03-20T01:53:23;15.32;;;8.13;;
48665;SDS011;34452;50.796;4.994;2023-03-20T01:55:53;13.48;;;6.93;;
48665;SDS011;34452;50.796;4.994;2023-03-20T01:58:23;15.98;;;7.53;;
48665;SDS011;34452;50.796;4.994;2023-03-20T02:00:56;17.00;;;7.57;;
48665;SDS011;34452;50.796;4.994;2023-03-20T02:03:23;11.63;;;6.68;;
48665;SDS011;34452;50.796;4.994;2023-03-20T02:08:17;15.07;;;7.40;;
48665;SDS011;34452;50.796;4.994;2023-03-20T02:11:03;11.43;;;6.97;;
48665;SDS011;34452;50.796;4.994;2023-03-20T02:13:30;18.98;;;9.88;;
48665;SDS011;34452;50.796;4.994;2023-03-20T02:18:26;19.20;;;8.05;;
48665;SDS011;34452;50.796;4.994;2023-03-20T02:29:43;15.82;;;8.88;;
48665;SDS011;34452;50.796;4.994;2023-03-20T02:43:49;16.95;;;9.52;;
48665;SDS011;34452;50.796;4.994;2023-03-20T02:46:35;14.90;;;8.97;;
48665;SDS011;34452;50.796;4.994;2023-03-20T02:57:46;16.77;;;8.80;;
48665;SDS011;34452;50.796;4.994;2023-03-20T03:03:30;15.80;;;9.05;;
48665;SDS011;34452;50.796;4.994;2023-03-20T03:08:53;19.13;;;9.75;;
48665;SDS011;34452;50.796;4.994;2023-03-20T03:11:26;18.23;;;10.23;;
48665;SDS011;34452;50.796;4.994;2023-03-20T03:13:52;23.73;;;10.07;;
48665;SDS011;34452;50.796;4.994;2023-03-20T03:16:23;27.50;;;11.15;;
48665;SDS011;34452;50.796;4.994;2023-03-20T03:19:06;19.30;;;10.00;;
48665;SDS011;34452;50.796;4.994;2023-03-20T03:21:34;17.45;;;10.13;;
48665;SDS011;34452;50.796;4.994;2023-03-20T03:24:03;17.65;;;10.15;;
48665;SDS011;34452;50.796;4.994;2023-03-20T03:26:31;22.17;;;10.52;;
48665;SDS011;34452;50.796;4.994;2023-03-20T03:29:01;16.30;;;10.15;;
48665;SDS011;34452;50.796;4.994;2023-03-20T03:31:34;18.30;;;10.98;;
48665;SDS011;34452;50.796;4.994;2023-03-20T03:34:01;22.10;;;11.32;;
48665;SDS011;34452;50.796;4.994;2023-03-20T03:36:32;22.52;;;9.82;;
48665;SDS011;34452;50.796;4.994;2023-03-20T03:39:22;22.05;;;11.60;;
48665;SDS011;34452;50.796;4.994;2023-03-20T03:42:04;28.90;;;11.65;;
48665;SDS011;34452;50.796;4.994;2023-03-20T03:44:44;22.67;;;10.95;;
48665;SDS011;34452;50.796;4.994;2023-03-20T03:49:45;28.80;;;12.90;;
48665;SDS011;34452;50.796;4.994;2023-03-20T03:52:15;24.80;;;13.80;;
48665;SDS011;34452;50.796;4.994;2023-03-20T03:54:47;25.35;;;12.38;;
48665;SDS011;34452;50.796;4.994;2023-03-20T03:57:19;26.27;;;13.43;;
48665;SDS011;34452;50.796;4.994;2023-03-20T03:59:49;24.75;;;12.65;;
48665;SDS011;34452;50.796;4.994;2023-03-20T04:02:17;28.75;;;14.13;;
48665;SDS011;34452;50.796;4.994;2023-03-20T04:04:45;28.95;;;14.20;;
48665;SDS011;34452;50.796;4.994;2023-03-20T04:07:15;28.45;;;13.40;;
48665;SDS011;34452;50.796;4.994;2023-03-20T04:09:40;32.30;;;12.75;;
48665;SDS011;34452;50.796;4.994;2023-03-20T04:12:10;37.25;;;14.43;;
48665;SDS011;34452;50.796;4.994;2023-03-20T04:15:00;30.73;;;14.32;;
48665;SDS011;34452;50.796;4.994;2023-03-20T04:17:26;25.88;;;13.40;;
48665;SDS011;34452;50.796;4.994;2023-03-20T04:19:52;30.00;;;14.18;;
48665;SDS011;34452;50.796;4.994;2023-03-20T04:22:17;28.35;;;13.73;;
48665;SDS011;34452;50.796;4.994;2023-03-20T04:24:43;20.67;;;11.98;;
48665;SDS011;34452;50.796;4.994;2023-03-20T04:27:09;32.75;;;14.65;;
48665;SDS011;34452;50.796;4.994;2023-03-20T04:29:35;29.40;;;12.65;;
48665;SDS011;34452;50.796;4.994;2023-03-20T04:32:01;33.63;;;13.10;;
48665;SDS011;34452;50.796;4.994;2023-03-20T04:34:27;29.95;;;14.02;;
48665;SDS011;34452;50.796;4.994;2023-03-20T04:36:53;30.08;;;12.93;;
48665;SDS011;34452;50.796;4.994;2023-03-20T04:39:19;29.58;;;12.73;;
48665;SDS011;34452;50.796;4.994;2023-03-20T04:41:45;28.98;;;12.52;;
48665;SDS011;34452;50.796;4.994;2023-03-20T04:44:12;31.20;;;12.73;;
48665;SDS011;34452;50.796;4.994;2023-03-20T04:46:38;24.50;;;13.13;;
48665;SDS011;34452;50.796;4.994;2023-03-20T04:49:03;38.15;;;14.32;;
48665;SDS011;34452;50.796;4.994;2023-03-20T04:51:29;24.92;;;13.65;;
48665;SDS011;34452;50.796;4.994;2023-03-20T04:53:55;33.03;;;14.82;;
48665;SDS011;34452;50.796;4.994;2023-03-20T04:56:21;33.40;;;14.27;;
48665;SDS011;34452;50.796;4.994;2023-03-20T04:58:46;35.50;;;14.15;;
48665;SDS011;34452;50.796;4.994;2023-03-20T05:01:12;28.95;;;13.48;;
48665;SDS011;34452;50.796;4.994;2023-03-20T05:03:38;26.60;;;12.90;;
48665;SDS011;34452;50.796;4.994;2023-03-20T05:06:03;29.90;;;13.53;;
48665;SDS011;34452;50.796;4.994;2023-03-20T05:08:29;29.80;;;13.18;;
48665;SDS011;34452;50.796;4.994;2023-03-20T05:10:55;35.80;;;14.25;;
48665;SDS011;34452;50.796;4.994;2023-03-20T05:13:21;36.22;;;14.00;;
48665;SDS011;34452;50.796;4.994;2023-03-20T05:15:47;37.05;;;14.13;;
48665;SDS011;34452;50.796;4.994;2023-03-20T05:18:13;32.47;;;13.63;;
48665;SDS011;34452;50.796;4.994;2023-03-20T05:20:38;37.95;;;14.80;;
48665;SDS011;34452;50.796;4.994;2023-03-20T05:23:05;37.47;;;15.45;;
48665;SDS011;34452;50.796;4.994;2023-03-20T05:27:57;36.03;;;13.88;;
48665;SDS011;34452;50.796;4.994;2023-03-20T05:30:22;32.83;;;14.10;;
48665;SDS011;34452;50.796;4.994;2023-03-20T05:32:49;32.17;;;14.13;;
48665;SDS011;34452;50.796;4.994;2023-03-20T05:35:16;35.08;;;13.77;;
48665;SDS011;34452;50.796;4.994;2023-03-20T05:37:42;37.83;;;14.63;;
48665;SDS011;34452;50.796;4.994;2023-03-20T05:40:09;35.95;;;14.40;;
48665;SDS011;34452;50.796;4.994;2023-03-20T05:42:37;33.30;;;13.00;;
48665;SDS011;34452;50.796;4.994;2023-03-20T05:45:03;39.40;;;13.48;;
48665;SDS011;34452;50.796;4.994;2023-03-20T05:47:29;31.02;;;13.35;;
48665;SDS011;34452;50.796;4.994;2023-03-20T05:49:55;32.83;;;12.43;;
48665;SDS011;34452;50.796;4.994;2023-03-20T05:52:21;35.70;;;13.85;;
48665;SDS011;34452;50.796;4.994;2023-03-20T05:54:47;33.55;;;13.43;;
48665;SDS011;34452;50.796;4.994;2023-03-20T05:57:12;36.65;;;12.85;;
48665;SDS011;34452;50.796;4.994;2023-03-20T05:59:39;31.40;;;11.68;;
48665;SDS011;34452;50.796;4.994;2023-03-20T06:02:05;30.30;;;13.13;;
48665;SDS011;34452;50.796;4.994;2023-03-20T06:04:31;26.73;;;12.13;;
48665;SDS011;34452;50.796;4.994;2023-03-20T06:06:57;33.00;;;12.45;;
48665;SDS011;34452;50.796;4.994;2023-03-20T06:09:22;31.23;;;12.52;;
48665;SDS011;34452;50.796;4.994;2023-03-20T06:11:48;33.67;;;12.93;;
48665;SDS011;34452;50.796;4.994;2023-03-20T06:14:14;29.40;;;11.68;;
48665;SDS011;34452;50.796;4.994;2023-03-20T06:16:40;32.87;;;12.40;;
48665;SDS011;34452;50.796;4.994;2023-03-20T06:19:05;26.13;;;10.93;;
48665;SDS011;34452;50.796;4.994;2023-03-20T06:21:31;32.97;;;11.47;;
48665;SDS011;34452;50.796;4.994;2023-03-20T06:23:57;28.23;;;10.80;;
48665;SDS011;34452;50.796;4.994;2023-03-20T06:26:24;25.30;;;10.27;;
48665;SDS011;34452;50.796;4.994;2023-03-20T06:28:50;26.33;;;10.70;;
48665;SDS011;34452;50.796;4.994;2023-03-20T06:31:16;27.48;;;10.27;;
48665;SDS011;34452;50.796;4.994;2023-03-20T06:33:41;27.70;;;11.00;;
48665;SDS011;34452;50.796;4.994;2023-03-20T06:36:08;26.23;;;9.60;;
48665;SDS011;34452;50.796;4.994;2023-03-20T06:38:34;27.40;;;10.18;;
48665;SDS011;34452;50.796;4.994;2023-03-20T06:41:00;22.20;;;9.38;;
48665;SDS011;34452;50.796;4.994;2023-03-20T06:43:26;26.00;;;9.85;;
48665;SDS011;34452;50.796;4.994;2023-03-20T06:45:52;28.67;;;9.30;;
48665;SDS011;34452;50.796;4.994;2023-03-20T06:48:17;19.85;;;8.98;;
48665;SDS011;34452;50.796;4.994;2023-03-20T06:50:46;22.48;;;8.63;;
48665;SDS011;34452;50.796;4.994;2023-03-20T06:53:13;19.85;;;8.20;;
48665;SDS011;34452;50.796;4.994;2023-03-20T06:55:39;20.38;;;9.13;;
48665;SDS011;34452;50.796;4.994;2023-03-20T06:58:05;34.40;;;9.25;;
48665;SDS011;34452;50.796;4.994;2023-03-20T07:00:30;25.90;;;8.63;;
48665;SDS011;34452;50.796;4.994;2023-03-20T07:02:57;21.15;;;8.38;;
48665;SDS011;34452;50.796;4.994;2023-03-20T07:05:22;21.50;;;7.87;;
48665;SDS011;34452;50.796;4.994;2023-03-20T07:07:48;23.90;;;7.93;;
48665;SDS011;34452;50.796;4.994;2023-03-20T07:10:14;19.80;;;7.30;;
48665;SDS011;34452;50.796;4.994;2023-03-20T07:12:41;21.27;;;8.13;;
48665;SDS011;34452;50.796;4.994;2023-03-20T07:15:08;16.85;;;6.82;;
48665;SDS011;34452;50.796;4.994;2023-03-20T07:17:35;18.95;;;6.43;;
48665;SDS011;34452;50.796;4.994;2023-03-20T07:20:01;19.52;;;7.22;;
48665;SDS011;34452;50.796;4.994;2023-03-20T07:22:28;20.17;;;7.07;;
48665;SDS011;34452;50.796;4.994;2023-03-20T07:24:56;19.98;;;6.63;;
48665;SDS011;34452;50.796;4.994;2023-03-20T07:29:48;16.00;;;5.75;;
48665;SDS011;34452;50.796;4.994;2023-03-20T07:32:14;15.57;;;5.97;;
48665;SDS011;34452;50.796;4.994;2023-03-20T07:34:40;17.52;;;5.95;;
48665;SDS011;34452;50.796;4.994;2023-03-20T07:37:06;20.95;;;6.43;;
48665;SDS011;34452;50.796;4.994;2023-03-20T07:39:32;19.20;;;5.00;;
48665;SDS011;34452;50.796;4.994;2023-03-20T07:41:58;16.02;;;5.55;;
48665;SDS011;34452;50.796;4.994;2023-03-20T07:44:23;15.75;;;4.93;;
48665;SDS011;34452;50.796;4.994;2023-03-20T07:46:49;13.60;;;5.07;;
48665;SDS011;34452;50.796;4.994;2023-03-20T07:49:15;14.77;;;4.90;;
48665;SDS011;34452;50.796;4.994;2023-03-20T07:51:43;14.73;;;4.75;;
48665;SDS011;34452;50.796;4.994;2023-03-20T07:54:09;14.13;;;4.95;;
48665;SDS011;34452;50.796;4.994;2023-03-20T07:56:35;23.85;;;5.95;;
48665;SDS011;34452;50.796;4.994;2023-03-20T07:59:01;15.65;;;4.90;;
48665;SDS011;34452;50.796;4.994;2023-03-20T08:01:27;21.42;;;6.28;;
48665;SDS011;34452;50.796;4.994;2023-03-20T08:03:52;17.00;;;4.75;;
48665;SDS011;34452;50.796;4.994;2023-03-20T08:06:18;13.87;;;4.50;;
48665;SDS011;34452;50.796;4.994;2023-03-20T08:08:44;16.67;;;4.57;;
48665;SDS011;34452;50.796;4.994;2023-03-20T08:11:10;17.27;;;4.47;;
48665;SDS011;34452;50.796;4.994;2023-03-20T08:13:36;14.52;;;3.95;;
48665;SDS011;34452;50.796;4.994;2023-03-20T08:16:02;11.40;;;4.75;;
48665;SDS011;34452;50.796;4.994;2023-03-20T08:18:28;10.20;;;4.63;;
48665;SDS011;34452;50.796;4.994;2023-03-20T08:20:54;14.60;;;4.50;;
48665;SDS011;34452;50.796;4.994;2023-03-20T08:23:20;21.80;;;4.57;;
48665;SDS011;34452;50.796;4.994;2023-03-20T08:25:46;17.75;;;4.82;;
48665;SDS011;34452;50.796;4.994;2023-03-20T08:28:13;15.15;;;4.20;;
48665;SDS011;34452;50.796;4.994;2023-03-20T08:30:39;21.08;;;4.75;;
48665;SDS011;34452;50.796;4.994;2023-03-20T08:33:05;26.60;;;6.25;;
48665;SDS011;34452;50.796;4.994;2023-03-20T08:35:31;14.68;;;4.63;;
48665;SDS011;34452;50.796;4.994;2023-03-20T08:37:57;16.35;;;4.07;;
48665;SDS011;34452;50.796;4.994;2023-03-20T08:40:22;12.40;;;3.65;;
48665;SDS011;34452;50.796;4.994;2023-03-20T08:42:48;13.90;;;3.53;;
48665;SDS011;34452;50.796;4.994;2023-03-20T08:45:14;16.98;;;4.60;;
48665;SDS011;34452;50.796;4.994;2023-03-20T08:47:40;12.85;;;3.58;;
48665;SDS011;34452;50.796;4.994;2023-03-20T08:50:06;18.23;;;4.63;;
48665;SDS011;34452;50.796;4.994;2023-03-20T08:52:33;12.68;;;3.35;;
48665;SDS011;34452;50.796;4.994;2023-03-20T08:54:59;11.20;;;4.03;;
48665;SDS011;34452;50.796;4.994;2023-03-20T08:57:25;10.40;;;3.50;;
48665;SDS011;34452;50.796;4.994;2023-03-20T08:59:51;13.75;;;3.80;;
48665;SDS011;34452;50.796;4.994;2023-03-20T09:02:17;15.57;;;3.55;;
48665;SDS011;34452;50.796;4.994;2023-03-20T09:04:42;11.07;;;3.00;;
48665;SDS011;34452;50.796;4.994;2023-03-20T09:07:08;16.63;;;3.33;;
48665;SDS011;34452;50.796;4.994;2023-03-20T09:09:34;12.30;;;4.47;;
48665;SDS011;34452;50.796;4.994;2023-03-20T09:12:00;23.48;;;4.75;;
48665;SDS011;34452;50.796;4.994;2023-03-20T09:14:26;14.60;;;4.03;;
48665;SDS011;34452;50.796;4.994;2023-03-20T09:16:52;19.02;;;3.65;;
48665;SDS011;34452;50.796;4.994;2023-03-20T09:19:18;12.27;;;3.50;;
48665;SDS011;34452;50.796;4.994;2023-03-20T09:21:44;9.10;;;3.47;;
48665;SDS011;34452;50.796;4.994;2023-03-20T09:24:10;12.82;;;3.72;;
48665;SDS011;34452;50.796;4.994;2023-03-20T09:26:36;9.30;;;3.60;;
48665;SDS011;34452;50.796;4.994;2023-03-20T09:29:03;15.27;;;3.97;;
48665;SDS011;34452;50.796;4.994;2023-03-20T09:31:30;12.15;;;3.47;;
48665;SDS011;34452;50.796;4.994;2023-03-20T09:33:56;13.27;;;3.45;;
48665;SDS011;34452;50.796;4.994;2023-03-20T09:36:22;15.27;;;3.13;;
48665;SDS011;34452;50.796;4.994;2023-03-20T09:38:47;12.07;;;3.37;;
48665;SDS011;34452;50.796;4.994;2023-03-20T09:41:16;18.07;;;3.90;;
48665;SDS011;34452;50.796;4.994;2023-03-20T09:46:35;18.80;;;3.90;;
48665;SDS011;34452;50.796;4.994;2023-03-20T09:49:37;8.02;;;2.72;;
48665;SDS011;34452;50.796;4.994;2023-03-20T09:54:55;12.82;;;3.60;;
48665;SDS011;34452;50.796;4.994;2023-03-20T09:57:27;18.70;;;4.18;;
48665;SDS011;34452;50.796;4.994;2023-03-20T10:00:00;13.52;;;3.45;;
48665;SDS011;34452;50.796;4.994;2023-03-20T10:05:18;17.48;;;4.00;;
48665;SDS011;34452;50.796;4.994;2023-03-20T10:08:04;14.07;;;4.35;;
48665;SDS011;34452;50.796;4.994;2023-03-20T10:10:38;17.10;;;5.43;;
48665;SDS011;34452;50.796;4.994;2023-03-20T10:13:27;16.90;;;3.95;;
48665;SDS011;34452;50.796;4.994;2023-03-20T10:16:14;16.33;;;4.22;;
48665;SDS011;34452;50.796;4.994;2023-03-20T10:18:58;15.48;;;3.38;;
48665;SDS011;34452;50.796;4.994;2023-03-20T10:24:27;18.95;;;4.40;;
48665;SDS011;34452;50.796;4.994;2023-03-20T10:27:00;36.35;;;5.07;;
48665;SDS011;34452;50.796;4.994;2023-03-20T10:32:23;16.25;;;4.30;;
48665;SDS011;34452;50.796;4.994;2023-03-20T10:35:12;12.35;;;3.47;;
48665;SDS011;34452;50.796;4.994;2023-03-20T10:38:30;15.75;;;3.75;;
48665;SDS011;34452;50.796;4.994;2023-03-20T10:41:03;16.88;;;3.83;;
48665;SDS011;34452;50.796;4.994;2023-03-20T10:43:38;14.25;;;4.78;;
48665;SDS011;34452;50.796;4.994;2023-03-20T10:48:40;28.13;;;4.43;;
48665;SDS011;34452;50.796;4.994;2023-03-20T10:51:13;15.00;;;4.28;;
48665;SDS011;34452;50.796;4.994;2023-03-20T10:53:47;14.98;;;3.38;;
48665;SDS011;34452;50.796;4.994;2023-03-20T10:56:20;10.73;;;3.38;;
48665;SDS011;34452;50.796;4.994;2023-03-20T10:59:09;15.18;;;3.97;;
48665;SDS011;34452;50.796;4.994;2023-03-20T11:01:44;15.32;;;3.50;;
48665;SDS011;34452;50.796;4.994;2023-03-20T11:04:10;20.73;;;4.07;;
48665;SDS011;34452;50.796;4.994;2023-03-20T11:06:38;19.00;;;3.87;;
48665;SDS011;34452;50.796;4.994;2023-03-20T11:09:15;12.70;;;4.15;;
48665;SDS011;34452;50.796;4.994;2023-03-20T11:12:16;15.95;;;3.75;;
48665;SDS011;34452;50.796;4.994;2023-03-20T11:14:43;13.68;;;3.70;;
48665;SDS011;34452;50.796;4.994;2023-03-20T11:19:37;16.48;;;3.83;;
48665;SDS011;34452;50.796;4.994;2023-03-20T11:22:07;16.00;;;3.47;;
48665;SDS011;34452;50.796;4.994;2023-03-20T11:24:46;18.15;;;3.20;;
48665;SDS011;34452;50.796;4.994;2023-03-20T11:27:17;16.38;;;3.80;;
48665;SDS011;34452;50.796;4.994;2023-03-20T11:29:49;19.08;;;4.65;;
48665;SDS011;34452;50.796;4.994;2023-03-20T11:35:13;12.98;;;3.08;;
48665;SDS011;34452;50.796;4.994;2023-03-20T11:37:44;14.23;;;2.78;;
48665;SDS011;34452;50.796;4.994;2023-03-20T11:45:36;11.25;;;2.20;;
48665;SDS011;34452;50.796;4.994;2023-03-20T11:48:03;15.52;;;3.33;;
48665;SDS011;34452;50.796;4.994;2023-03-20T11:50:41;21.05;;;3.58;;
48665;SDS011;34452;50.796;4.994;2023-03-20T11:53:30;14.05;;;3.55;;
48665;SDS011;34452;50.796;4.994;2023-03-20T11:56:02;12.80;;;3.20;;
48665;SDS011;34452;50.796;4.994;2023-03-20T11:58:32;12.32;;;2.97;;
48665;SDS011;34452;50.796;4.994;2023-03-20T12:01:02;15.55;;;2.67;;
48665;SDS011;34452;50.796;4.994;2023-03-20T12:06:20;10.38;;;2.55;;
48665;SDS011;34452;50.796;4.994;2023-03-20T12:08:50;8.25;;;2.33;;
48665;SDS011;34452;50.796;4.994;2023-03-20T12:16:51;9.80;;;2.50;;
48665;SDS011;34452;50.796;4.994;2023-03-20T12:19:24;10.75;;;2.17;;
48665;SDS011;34452;50.796;4.994;2023-03-20T12:24:56;19.83;;;2.97;;
48665;SDS011;34452;50.796;4.994;2023-03-20T12:27:42;13.48;;;4.00;;
48665;SDS011;34452;50.796;4.994;2023-03-20T12:30:15;12.40;;;2.83;;
48665;SDS011;34452;50.796;4.994;2023-03-20T12:35:55;12.82;;;3.15;;
48665;SDS011;34452;50.796;4.994;2023-03-20T12:38:27;11.43;;;2.53;;
48665;SDS011;34452;50.796;4.994;2023-03-20T12:41:07;14.25;;;2.97;;
48665;SDS011;34452;50.796;4.994;2023-03-20T12:43:42;8.18;;;2.38;;
48665;SDS011;34452;50.796;4.994;2023-03-20T12:57:27;13.00;;;2.58;;
48665;SDS011;34452;50.796;4.994;2023-03-20T13:02:45;16.08;;;3.65;;
48665;SDS011;34452;50.796;4.994;2023-03-20T13:05:27;15.65;;;3.58;;
48665;SDS011;34452;50.796;4.994;2023-03-20T13:11:01;17.92;;;3.30;;
48665;SDS011;34452;50.796;4.994;2023-03-20T13:13:51;18.00;;;4.07;;
48665;SDS011;34452;50.796;4.994;2023-03-20T13:19:00;13.35;;;3.70;;
48665;SDS011;34452;50.796;4.994;2023-03-20T13:21:33;9.60;;;2.95;;
48665;SDS011;34452;50.796;4.994;2023-03-20T13:27:31;13.35;;;2.97;;
48665;SDS011;34452;50.796;4.994;2023-03-20T13:30:32;16.30;;;4.57;;
48665;SDS011;34452;50.796;4.994;2023-03-20T13:36:00;9.98;;;3.83;;
48665;SDS011;34452;50.796;4.994;2023-03-20T13:38:43;11.95;;;3.10;;
48665;SDS011;34452;50.796;4.994;2023-03-20T13:41:13;14.27;;;3.42;;
48665;SDS011;34452;50.796;4.994;2023-03-20T13:43:46;16.00;;;3.95;;
48665;SDS011;34452;50.796;4.994;2023-03-20T13:46:20;11.43;;;3.50;;
48665;SDS011;34452;50.796;4.994;2023-03-20T13:48:48;18.13;;;4.00;;
48665;SDS011;34452;50.796;4.994;2023-03-20T13:51:19;14.18;;;3.70;;
48665;SDS011;34452;50.796;4.994;2023-03-20T13:54:07;15.23;;;4.75;;
48665;SDS011;34452;50.796;4.994;2023-03-20T14:02:32;18.00;;;3.47;;
48665;SDS011;34452;50.796;4.994;2023-03-20T14:05:11;15.43;;;4.13;;
48665;SDS011;34452;50.796;4.994;2023-03-20T14:07:42;12.13;;;3.65;;
48665;SDS011;34452;50.796;4.994;2023-03-20T14:12:48;20.10;;;4.15;;
48665;SDS011;34452;50.796;4.994;2023-03-20T14:15:32;16.00;;;4.00;;
48665;SDS011;34452;50.796;4.994;2023-03-20T14:18:02;13.30;;;3.58;;
48665;SDS011;34452;50.796;4.994;2023-03-20T14:20:33;17.67;;;4.35;;
48665;SDS011;34452;50.796;4.994;2023-03-20T14:23:02;13.80;;;3.60;;
48665;SDS011;34452;50.796;4.994;2023-03-20T14:25:32;17.75;;;4.05;;
48665;SDS011;34452;50.796;4.994;2023-03-20T14:30:47;16.25;;;3.88;;
48665;SDS011;34452;50.796;4.994;2023-03-20T14:41:16;18.50;;;4.03;;
48665;SDS011;34452;50.796;4.994;2023-03-20T14:51:57;14.73;;;3.72;;
48665;SDS011;34452;50.796;4.994;2023-03-20T14:54:33;23.15;;;4.07;;
48665;SDS011;34452;50.796;4.994;2023-03-20T14:57:16;15.40;;;3.85;;
48665;SDS011;34452;50.796;4.994;2023-03-20T14:59:47;31.63;;;4.65;;
48665;SDS011;34452;50.796;4.994;2023-03-20T15:02:24;14.95;;;3.78;;
48665;SDS011;34452;50.796;4.994;2023-03-20T15:04:52;25.10;;;3.92;;
48665;SDS011;34452;50.796;4.994;2023-03-20T15:09:46;24.75;;;5.85;;
48665;SDS011;34452;50.796;4.994;2023-03-20T15:12:15;15.40;;;4.47;;
48665;SDS011;34452;50.796;4.994;2023-03-20T15:14:48;15.70;;;4.65;;
48665;SDS011;34452;50.796;4.994;2023-03-20T15:17:21;15.48;;;4.55;;
48665;SDS011;34452;50.796;4.994;2023-03-20T15:20:11;20.33;;;4.75;;
48665;SDS011;34452;50.796;4.994;2023-03-20T15:28:05;20.05;;;5.22;;
48665;SDS011;34452;50.796;4.994;2023-03-20T15:30:33;14.73;;;4.03;;
48665;SDS011;34452;50.796;4.994;2023-03-20T15:33:02;16.00;;;4.72;;
48665;SDS011;34452;50.796;4.994;2023-03-20T15:35:28;15.23;;;4.47;;
48665;SDS011;34452;50.796;4.994;2023-03-20T15:37:55;18.88;;;4.78;;
48665;SDS011;34452;50.796;4.994;2023-03-20T15:40:28;18.77;;;4.90;;
48665;SDS011;34452;50.796;4.994;2023-03-20T15:45:42;27.73;;;5.75;;
48665;SDS011;34452;50.796;4.994;2023-03-20T15:50:51;16.45;;;4.35;;
48665;SDS011;34452;50.796;4.994;2023-03-20T15:53:22;22.38;;;5.15;;
48665;SDS011;34452;50.796;4.994;2023-03-20T15:58:37;18.92;;;4.63;;
48665;SDS011;34452;50.796;4.994;2023-03-20T16:01:04;17.63;;;4.85;;
48665;SDS011;34452;50.796;4.994;2023-03-20T16:03:33;16.40;;;4.15;;
48665;SDS011;34452;50.796;4.994;2023-03-20T16:06:02;13.20;;;4.82;;
48665;SDS011;34452;50.796;4.994;2023-03-20T16:08:33;20.52;;;4.75;;
48665;SDS011;34452;50.796;4.994;2023-03-20T16:11:00;14.15;;;4.40;;
48665;SDS011;34452;50.796;4.994;2023-03-20T16:13:32;21.92;;;5.18;;
48665;SDS011;34452;50.796;4.994;2023-03-20T16:16:01;17.58;;;5.05;;
48665;SDS011;34452;50.796;4.994;2023-03-20T16:18:28;18.15;;;5.10;;
48665;SDS011;34452;50.796;4.994;2023-03-20T16:21:00;13.07;;;4.57;;
48665;SDS011;34452;50.796;4.994;2023-03-20T16:23:32;16.42;;;4.55;;
48665;SDS011;34452;50.796;4.994;2023-03-20T16:26:02;12.63;;;4.70;;
48665;SDS011;34452;50.796;4.994;2023-03-20T16:28:30;13.98;;;4.93;;
48665;SDS011;34452;50.796;4.994;2023-03-20T16:33:58;17.65;;;4.43;;
48665;SDS011;34452;50.796;4.994;2023-03-20T16:36:29;17.08;;;5.05;;
48665;SDS011;34452;50.796;4.994;2023-03-20T16:39:00;15.07;;;4.50;;
48665;SDS011;34452;50.796;4.994;2023-03-20T16:41:33;20.63;;;5.60;;
48665;SDS011;34452;50.796;4.994;2023-03-20T16:52:40;20.80;;;5.18;;
48665;SDS011;34452;50.796;4.994;2023-03-20T16:58:05;19.17;;;5.40;;
48665;SDS011;34452;50.796;4.994;2023-03-20T17:01:03;16.45;;;5.03;;
48665;SDS011;34452;50.796;4.994;2023-03-20T17:06:46;19.88;;;6.43;;
48665;SDS011;34452;50.796;4.994;2023-03-20T17:09:18;23.15;;;5.43;;
48665;SDS011;34452;50.796;4.994;2023-03-20T17:11:48;25.40;;;6.38;;
48665;SDS011;34452;50.796;4.994;2023-03-20T17:14:19;13.27;;;5.05;;
48665;SDS011;34452;50.796;4.994;2023-03-20T17:16:45;15.10;;;5.03;;
48665;SDS011;34452;50.796;4.994;2023-03-20T17:19:13;12.55;;;4.90;;
48665;SDS011;34452;50.796;4.994;2023-03-20T17:21:41;22.23;;;5.88;;
48665;SDS011;34452;50.796;4.994;2023-03-20T17:24:08;18.23;;;5.38;;
48665;SDS011;34452;50.796;4.994;2023-03-20T17:26:35;15.57;;;4.57;;
48665;SDS011;34452;50.796;4.994;2023-03-20T17:29:02;23.70;;;5.38;;
48665;SDS011;34452;50.796;4.994;2023-03-20T17:31:29;17.20;;;5.68;;
48665;SDS011;34452;50.796;4.994;2023-03-20T17:33:56;21.05;;;5.03;;
48665;SDS011;34452;50.796;4.994;2023-03-20T17:38:51;17.05;;;6.00;;
48665;SDS011;34452;50.796;4.994;2023-03-20T17:41:18;18.05;;;5.25;;
48665;SDS011;34452;50.796;4.994;2023-03-20T17:43:44;19.02;;;5.13;;
48665;SDS011;34452;50.796;4.994;2023-03-20T17:48:51;19.42;;;5.13;;
48665;SDS011;34452;50.796;4.994;2023-03-20T17:51:23;17.38;;;5.75;;
48665;SDS011;34452;50.796;4.994;2023-03-20T17:53:49;23.67;;;5.93;;
48665;SDS011;34452;50.796;4.994;2023-03-20T17:56:19;20.90;;;6.03;;